sensor_id;sensor_type;location;lat;lon;timestamp;P1;durP1;ratioP1;P2;durP2;ratioP2
16304;SDS011;8261;47.678;-122.174;2022-10-03T00:04:08;25.80;;;22.07;;
16304;SDS011;8261;47.678;-122.174;2022-10-03T00:06:52;25.93;;;22.70;;
16304;SDS011;8261;47.678;-122.174;2022-10-03T00:12:49;27.63;;;22.57;;
16304;SDS011;8261;47.678;-122.174;2022-10-03T00:15:32;24.90;;;22.30;;
16304;SDS011;8261;47.678;-122.174;2022-10-03T00:18:16;24.90;;;22.50;;
16304;SDS011;8261;47.678;-122.174;2022-10-03T00:21:07;25.03;;;22.10;;
16304;SDS011;8261;47.678;-122.174;2022-10-03T00:23:48;23.60;;;20.90;;
16304;SDS011;8261;47.678;-122.174;2022-10-03T00:26:27;24.47;;;21.87;;
16304;SDS011;8261;47.678;-122.174;2022-10-03T00:49:11;16.17;;;14.03;;
16304;SDS011;8261;47.678;-122.174;2022-10-03T00:52:10;16.43;;;14.20;;
16304;SDS011;8261;47.678;-122.174;2022-10-03T00:54:54;16.10;;;14.07;;
16304;SDS011;8261;47.678;-122.174;2022-10-03T00:57:52;16.47;;;13.73;;
16304;SDS011;8261;47.678;-122.174;2022-10-03T01:00:35;14.70;;;13.20;;
16304;SDS011;8261;47.678;-122.174;2022-10-03T01:06:12;15.97;;;12.80;;
16304;SDS011;8261;47.678;-122.174;2022-10-03T01:09:02;14.87;;;12.73;;
16304;SDS011;8261;47.678;-122.174;2022-10-03T01:12:02;14.97;;;12.73;;
16304;SDS011;8261;47.678;-122.174;2022-10-03T01:15:06;13.93;;;12.43;;
16304;SDS011;8261;47.678;-122.174;2022-10-03T01:17:49;15.77;;;13.33;;
16304;SDS011;8261;47.678;-122.174;2022-10-03T01:20:39;17.33;;;13.67;;
16304;SDS011;8261;47.678;-122.174;2022-10-03T01:23:24;15.87;;;12.93;;
16304;SDS011;8261;47.678;-122.174;2022-10-03T01:26:20;13.97;;;12.57;;
16304;SDS011;8261;47.678;-122.174;2022-10-03T01:29:10;16.63;;;13.27;;
16304;SDS011;8261;47.678;-122.174;2022-10-03T01:32:01;16.60;;;12.97;;
16304;SDS011;8261;47.678;-122.174;2022-10-03T01:34:38;14.77;;;13.33;;
16304;SDS011;8261;47.678;-122.174;2022-10-03T01:37:19;13.73;;;12.33;;
16304;SDS011;8261;47.678;-122.174;2022-10-03T01:39:58;16.30;;;13.80;;
16304;SDS011;8261;47.678;-122.174;2022-10-03T01:42:38;14.50;;;13.10;;
16304;SDS011;8261;47.678;-122.174;2022-10-03T01:45:22;15.50;;;13.27;;
16304;SDS011;8261;47.678;-122.174;2022-10-03T01:47:59;16.20;;;13.00;;
16304;SDS011;8261;47.678;-122.174;2022-10-03T01:50:36;14.37;;;12.97;;
16304;SDS011;8261;47.678;-122.174;2022-10-03T01:53:22;14.50;;;13.10;;
16304;SDS011;8261;47.678;-122.174;2022-10-03T01:56:01;14.67;;;13.13;;
16304;SDS011;8261;47.678;-122.174;2022-10-03T01:58:40;16.37;;;13.00;;
16304;SDS011;8261;47.678;-122.174;2022-10-03T02:01:21;17.23;;;13.13;;
16304;SDS011;8261;47.678;-122.174;2022-10-03T02:03:59;15.13;;;13.43;;
16304;SDS011;8261;47.678;-122.174;2022-10-03T02:06:39;16.63;;;13.77;;
16304;SDS011;8261;47.678;-122.174;2022-10-03T02:09:22;15.10;;;12.13;;
16304;SDS011;8261;47.678;-122.174;2022-10-03T02:12:04;13.50;;;12.10;;
16304;SDS011;8261;47.678;-122.174;2022-10-03T02:14:40;15.50;;;12.50;;
16304;SDS011;8261;47.678;-122.174;2022-10-03T02:17:23;15.33;;;13.03;;
16304;SDS011;8261;47.678;-122.174;2022-10-03T02:20:03;14.93;;;12.97;;
16304;SDS011;8261;47.678;-122.174;2022-10-03T02:22:43;14.10;;;12.60;;
16304;SDS011;8261;47.678;-122.174;2022-10-03T02:25:19;20.83;;;13.70;;
16304;SDS011;8261;47.678;-122.174;2022-10-03T02:28:05;14.30;;;12.80;;
16304;SDS011;8261;47.678;-122.174;2022-10-03T02:31:11;17.57;;;13.67;;
16304;SDS011;8261;47.678;-122.174;2022-10-03T02:50:07;14.93;;;13.40;;
16304;SDS011;8261;47.678;-122.174;2022-10-03T02:59:41;14.10;;;12.70;;
16304;SDS011;8261;47.678;-122.174;2022-10-03T03:12:06;17.00;;;14.47;;
16304;SDS011;8261;47.678;-122.174;2022-10-03T03:15:26;16.07;;;14.43;;
16304;SDS011;8261;47.678;-122.174;2022-10-03T03:18:25;17.67;;;15.43;;
16304;SDS011;8261;47.678;-122.174;2022-10-03T03:21:12;16.47;;;14.63;;
16304;SDS011;8261;47.678;-122.174;2022-10-03T03:26:59;16.03;;;13.80;;
16304;SDS011;8261;47.678;-122.174;2022-10-03T03:29:44;15.57;;;13.97;;
16304;SDS011;8261;47.678;-122.174;2022-10-03T03:32:26;17.13;;;14.87;;
16304;SDS011;8261;47.678;-122.174;2022-10-03T03:35:10;20.17;;;14.73;;
16304;SDS011;8261;47.678;-122.174;2022-10-03T03:37:53;16.00;;;14.30;;
16304;SDS011;8261;47.678;-122.174;2022-10-03T03:40:34;15.73;;;13.73;;
16304;SDS011;8261;47.678;-122.174;2022-10-03T03:43:19;16.17;;;14.47;;
16304;SDS011;8261;47.678;-122.174;2022-10-03T03:46:15;16.80;;;13.67;;
16304;SDS011;8261;47.678;-122.174;2022-10-03T03:49:02;15.80;;;13.63;;
16304;SDS011;8261;47.678;-122.174;2022-10-03T03:51:48;15.17;;;13.57;;
16304;SDS011;8261;47.678;-122.174;2022-10-03T03:57:41;16.57;;;13.90;;
16304;SDS011;8261;47.678;-122.174;2022-10-03T04:00:29;14.97;;;13.37;;
16304;SDS011;8261;47.678;-122.174;2022-10-03T04:03:30;16.70;;;14.17;;
16304;SDS011;8261;47.678;-122.174;2022-10-03T04:06:25;15.03;;;13.50;;
16304;SDS011;8261;47.678;-122.174;2022-10-03T04:09:15;16.63;;;14.03;;
16304;SDS011;8261;47.678;-122.174;2022-10-03T04:12:03;16.30;;;14.10;;
16304;SDS011;8261;47.678;-122.174;2022-10-03T04:15:08;16.13;;;13.77;;
16304;SDS011;8261;47.678;-122.174;2022-10-03T04:18:00;15.50;;;13.90;;
16304;SDS011;8261;47.678;-122.174;2022-10-03T04:21:01;19.30;;;15.30;;
16304;SDS011;8261;47.678;-122.174;2022-10-03T04:23:51;16.60;;;14.87;;
16304;SDS011;8261;47.678;-122.174;2022-10-03T04:26:39;16.13;;;14.43;;
16304;SDS011;8261;47.678;-122.174;2022-10-03T04:29:29;16.00;;;14.30;;
16304;SDS011;8261;47.678;-122.174;2022-10-03T04:32:25;14.93;;;13.43;;
16304;SDS011;8261;47.678;-122.174;2022-10-03T04:35:33;16.20;;;14.43;;
16304;SDS011;8261;47.678;-122.174;2022-10-03T04:38:24;16.53;;;14.83;;
16304;SDS011;8261;47.678;-122.174;2022-10-03T04:41:14;15.83;;;14.13;;
16304;SDS011;8261;47.678;-122.174;2022-10-03T04:43:51;16.63;;;14.97;;
16304;SDS011;8261;47.678;-122.174;2022-10-03T04:46:37;17.63;;;14.67;;
16304;SDS011;8261;47.678;-122.174;2022-10-03T04:49:15;16.00;;;14.30;;
16304;SDS011;8261;47.678;-122.174;2022-10-03T04:51:55;16.43;;;14.80;;
16304;SDS011;8261;47.678;-122.174;2022-10-03T04:54:32;16.70;;;14.90;;
16304;SDS011;8261;47.678;-122.174;2022-10-03T04:57:21;17.07;;;14.47;;
16304;SDS011;8261;47.678;-122.174;2022-10-03T05:00:05;16.30;;;14.57;;
16304;SDS011;8261;47.678;-122.174;2022-10-03T05:02:53;19.67;;;15.27;;
16304;SDS011;8261;47.678;-122.174;2022-10-03T05:05:40;16.77;;;15.07;;
16304;SDS011;8261;47.678;-122.174;2022-10-03T05:08:18;17.47;;;15.53;;
16304;SDS011;8261;47.678;-122.174;2022-10-03T05:11:01;16.93;;;15.13;;
16304;SDS011;8261;47.678;-122.174;2022-10-03T05:13:53;16.80;;;15.07;;
16304;SDS011;8261;47.678;-122.174;2022-10-03T05:16:39;18.50;;;14.93;;
16304;SDS011;8261;47.678;-122.174;2022-10-03T05:19:23;17.37;;;15.40;;
16304;SDS011;8261;47.678;-122.174;2022-10-03T05:22:31;19.17;;;14.77;;
16304;SDS011;8261;47.678;-122.174;2022-10-03T05:25:13;16.97;;;15.07;;
16304;SDS011;8261;47.678;-122.174;2022-10-03T05:27:51;18.27;;;16.20;;
16304;SDS011;8261;47.678;-122.174;2022-10-03T05:30:34;19.40;;;15.70;;
16304;SDS011;8261;47.678;-122.174;2022-10-03T05:33:14;20.73;;;15.73;;
16304;SDS011;8261;47.678;-122.174;2022-10-03T05:35:59;18.13;;;16.07;;
16304;SDS011;8261;47.678;-122.174;2022-10-03T05:42:10;18.73;;;15.53;;
16304;SDS011;8261;47.678;-122.174;2022-10-03T05:44:54;19.67;;;15.90;;
16304;SDS011;8261;47.678;-122.174;2022-10-03T05:47:35;22.80;;;16.43;;
16304;SDS011;8261;47.678;-122.174;2022-10-03T05:53:24;21.57;;;15.93;;
16304;SDS011;8261;47.678;-122.174;2022-10-03T05:56:18;17.90;;;15.97;;
16304;SDS011;8261;47.678;-122.174;2022-10-03T06:05:16;18.30;;;16.10;;
16304;SDS011;8261;47.678;-122.174;2022-10-03T06:08:20;21.20;;;17.53;;
16304;SDS011;8261;47.678;-122.174;2022-10-03T06:11:13;17.57;;;15.70;;
16304;SDS011;8261;47.678;-122.174;2022-10-03T06:14:10;19.10;;;16.57;;
16304;SDS011;8261;47.678;-122.174;2022-10-03T06:20:19;18.23;;;15.50;;
16304;SDS011;8261;47.678;-122.174;2022-10-03T06:23:27;20.13;;;16.87;;
16304;SDS011;8261;47.678;-122.174;2022-10-03T06:26:28;18.50;;;15.50;;
16304;SDS011;8261;47.678;-122.174;2022-10-03T06:29:25;20.13;;;16.37;;
16304;SDS011;8261;47.678;-122.174;2022-10-03T06:32:24;19.20;;;14.93;;
16304;SDS011;8261;47.678;-122.174;2022-10-03T06:35:37;17.40;;;15.53;;
16304;SDS011;8261;47.678;-122.174;2022-10-03T06:44:50;18.80;;;15.53;;
16304;SDS011;8261;47.678;-122.174;2022-10-03T06:48:03;19.20;;;16.83;;
16304;SDS011;8261;47.678;-122.174;2022-10-03T06:50:51;19.73;;;16.47;;
16304;SDS011;8261;47.678;-122.174;2022-10-03T06:53:32;20.23;;;16.90;;
16304;SDS011;8261;47.678;-122.174;2022-10-03T06:59:25;21.37;;;18.37;;
16304;SDS011;8261;47.678;-122.174;2022-10-03T07:02:36;19.27;;;17.27;;
16304;SDS011;8261;47.678;-122.174;2022-10-03T07:05:30;19.83;;;16.67;;
16304;SDS011;8261;47.678;-122.174;2022-10-03T07:14:46;19.03;;;16.47;;
16304;SDS011;8261;47.678;-122.174;2022-10-03T07:17:42;18.37;;;16.47;;
16304;SDS011;8261;47.678;-122.174;2022-10-03T07:24:04;16.23;;;14.53;;
16304;SDS011;8261;47.678;-122.174;2022-10-03T07:26:59;17.07;;;15.27;;
16304;SDS011;8261;47.678;-122.174;2022-10-03T07:39:28;17.90;;;15.50;;
16304;SDS011;8261;47.678;-122.174;2022-10-03T07:48:39;18.17;;;15.07;;
16304;SDS011;8261;47.678;-122.174;2022-10-03T07:51:25;18.53;;;16.53;;
16304;SDS011;8261;47.678;-122.174;2022-10-03T07:54:11;16.70;;;14.87;;
16304;SDS011;8261;47.678;-122.174;2022-10-03T07:57:19;19.67;;;14.93;;
16304;SDS011;8261;47.678;-122.174;2022-10-03T08:00:04;17.03;;;15.23;;
16304;SDS011;8261;47.678;-122.174;2022-10-03T08:08:58;17.97;;;15.70;;
16304;SDS011;8261;47.678;-122.174;2022-10-03T08:14:56;19.43;;;16.60;;
16304;SDS011;8261;47.678;-122.174;2022-10-03T08:20:57;22.07;;;17.40;;
16304;SDS011;8261;47.678;-122.174;2022-10-03T08:26:42;20.07;;;17.93;;
16304;SDS011;8261;47.678;-122.174;2022-10-03T08:29:35;20.03;;;17.90;;
16304;SDS011;8261;47.678;-122.174;2022-10-03T08:35:29;21.83;;;19.53;;
16304;SDS011;8261;47.678;-122.174;2022-10-03T08:38:31;23.77;;;19.90;;
16304;SDS011;8261;47.678;-122.174;2022-10-03T08:41:33;23.80;;;20.37;;
16304;SDS011;8261;47.678;-122.174;2022-10-03T08:53:53;25.40;;;22.73;;
16304;SDS011;8261;47.678;-122.174;2022-10-03T08:56:55;25.87;;;22.77;;
16304;SDS011;8261;47.678;-122.174;2022-10-03T09:00:03;28.23;;;23.27;;
16304;SDS011;8261;47.678;-122.174;2022-10-03T09:10:00;32.03;;;25.97;;
16304;SDS011;8261;47.678;-122.174;2022-10-03T09:19:06;35.23;;;28.33;;
16304;SDS011;8261;47.678;-122.174;2022-10-03T09:22:03;34.33;;;28.33;;
16304;SDS011;8261;47.678;-122.174;2022-10-03T09:31:12;34.67;;;29.87;;
16304;SDS011;8261;47.678;-122.174;2022-10-03T09:34:02;33.63;;;29.53;;
16304;SDS011;8261;47.678;-122.174;2022-10-03T09:37:18;32.40;;;28.33;;
16304;SDS011;8261;47.678;-122.174;2022-10-03T09:40:16;36.47;;;30.30;;
16304;SDS011;8261;47.678;-122.174;2022-10-03T09:53:14;35.57;;;30.07;;
16304;SDS011;8261;47.678;-122.174;2022-10-03T09:56:20;33.97;;;29.00;;
16304;SDS011;8261;47.678;-122.174;2022-10-03T09:59:19;34.73;;;28.93;;
16304;SDS011;8261;47.678;-122.174;2022-10-03T10:02:03;33.43;;;29.07;;
16304;SDS011;8261;47.678;-122.174;2022-10-03T10:04:54;33.13;;;29.53;;
16304;SDS011;8261;47.678;-122.174;2022-10-03T10:10:42;33.40;;;29.83;;
16304;SDS011;8261;47.678;-122.174;2022-10-03T10:13:38;33.70;;;29.23;;
16304;SDS011;8261;47.678;-122.174;2022-10-03T10:16:43;35.90;;;31.77;;
16304;SDS011;8261;47.678;-122.174;2022-10-03T10:19:45;33.37;;;29.80;;
16304;SDS011;8261;47.678;-122.174;2022-10-03T10:22:39;34.73;;;29.63;;
16304;SDS011;8261;47.678;-122.174;2022-10-03T10:25:33;34.03;;;30.13;;
16304;SDS011;8261;47.678;-122.174;2022-10-03T10:28:29;34.20;;;29.67;;
16304;SDS011;8261;47.678;-122.174;2022-10-03T10:38:17;35.40;;;29.53;;
16304;SDS011;8261;47.678;-122.174;2022-10-03T10:44:29;34.63;;;30.33;;
16304;SDS011;8261;47.678;-122.174;2022-10-03T10:54:14;35.37;;;29.80;;
16304;SDS011;8261;47.678;-122.174;2022-10-03T10:57:20;32.60;;;29.17;;
16304;SDS011;8261;47.678;-122.174;2022-10-03T11:00:25;33.50;;;28.47;;
16304;SDS011;8261;47.678;-122.174;2022-10-03T11:18:54;33.70;;;29.27;;
16304;SDS011;8261;47.678;-122.174;2022-10-03T11:22:14;33.83;;;28.97;;
16304;SDS011;8261;47.678;-122.174;2022-10-03T11:31:40;34.67;;;30.17;;
16304;SDS011;8261;47.678;-122.174;2022-10-03T11:38:11;32.47;;;29.10;;
16304;SDS011;8261;47.678;-122.174;2022-10-03T11:40:53;32.60;;;29.03;;
16304;SDS011;8261;47.678;-122.174;2022-10-03T11:46:46;32.40;;;28.80;;
16304;SDS011;8261;47.678;-122.174;2022-10-03T11:49:36;34.53;;;29.60;;
16304;SDS011;8261;47.678;-122.174;2022-10-03T11:52:26;34.27;;;30.53;;
16304;SDS011;8261;47.678;-122.174;2022-10-03T11:55:15;35.30;;;28.90;;
16304;SDS011;8261;47.678;-122.174;2022-10-03T11:57:59;34.40;;;28.47;;
16304;SDS011;8261;47.678;-122.174;2022-10-03T12:00:39;38.37;;;30.60;;
16304;SDS011;8261;47.678;-122.174;2022-10-03T12:03:18;35.10;;;30.03;;
16304;SDS011;8261;47.678;-122.174;2022-10-03T12:05:53;33.07;;;28.97;;
16304;SDS011;8261;47.678;-122.174;2022-10-03T12:08:41;33.33;;;28.57;;
16304;SDS011;8261;47.678;-122.174;2022-10-03T12:11:30;31.37;;;28.07;;
16304;SDS011;8261;47.678;-122.174;2022-10-03T12:14:17;32.53;;;28.93;;
16304;SDS011;8261;47.678;-122.174;2022-10-03T12:16:58;31.53;;;27.97;;
16304;SDS011;8261;47.678;-122.174;2022-10-03T12:19:36;31.87;;;28.17;;
16304;SDS011;8261;47.678;-122.174;2022-10-03T12:22:18;31.73;;;28.27;;
16304;SDS011;8261;47.678;-122.174;2022-10-03T12:25:06;31.27;;;27.97;;
16304;SDS011;8261;47.678;-122.174;2022-10-03T12:28:03;32.60;;;27.83;;
16304;SDS011;8261;47.678;-122.174;2022-10-03T12:30:43;33.63;;;27.63;;
16304;SDS011;8261;47.678;-122.174;2022-10-03T12:33:32;31.93;;;28.50;;
16304;SDS011;8261;47.678;-122.174;2022-10-03T12:36:14;33.07;;;27.70;;
16304;SDS011;8261;47.678;-122.174;2022-10-03T12:39:02;34.93;;;28.50;;
16304;SDS011;8261;47.678;-122.174;2022-10-03T12:41:52;30.63;;;27.43;;
16304;SDS011;8261;47.678;-122.174;2022-10-03T12:44:37;30.70;;;27.40;;
16304;SDS011;8261;47.678;-122.174;2022-10-03T12:47:25;34.93;;;28.10;;
16304;SDS011;8261;47.678;-122.174;2022-10-03T12:50:25;31.87;;;27.60;;
16304;SDS011;8261;47.678;-122.174;2022-10-03T12:56:06;31.47;;;26.67;;
16304;SDS011;8261;47.678;-122.174;2022-10-03T12:58:48;30.27;;;26.93;;
16304;SDS011;8261;47.678;-122.174;2022-10-03T13:01:27;31.77;;;28.40;;
16304;SDS011;8261;47.678;-122.174;2022-10-03T13:04:10;32.07;;;28.57;;
16304;SDS011;8261;47.678;-122.174;2022-10-03T13:06:56;31.37;;;27.47;;
16304;SDS011;8261;47.678;-122.174;2022-10-03T13:09:57;30.97;;;26.60;;
16304;SDS011;8261;47.678;-122.174;2022-10-03T13:12:39;31.63;;;28.07;;
16304;SDS011;8261;47.678;-122.174;2022-10-03T13:18:20;33.67;;;27.87;;
16304;SDS011;8261;47.678;-122.174;2022-10-03T13:21:05;30.67;;;27.37;;
16304;SDS011;8261;47.678;-122.174;2022-10-03T13:24:01;31.90;;;26.80;;
16304;SDS011;8261;47.678;-122.174;2022-10-03T13:26:43;30.60;;;27.40;;
16304;SDS011;8261;47.678;-122.174;2022-10-03T13:29:24;30.67;;;27.43;;
16304;SDS011;8261;47.678;-122.174;2022-10-03T13:32:03;29.67;;;26.53;;
16304;SDS011;8261;47.678;-122.174;2022-10-03T13:34:47;30.40;;;26.83;;
16304;SDS011;8261;47.678;-122.174;2022-10-03T13:38:02;31.87;;;27.83;;
16304;SDS011;8261;47.678;-122.174;2022-10-03T13:40:42;33.43;;;27.73;;
16304;SDS011;8261;47.678;-122.174;2022-10-03T13:43:22;32.13;;;28.63;;
16304;SDS011;8261;47.678;-122.174;2022-10-03T13:46:09;32.23;;;28.70;;
16304;SDS011;8261;47.678;-122.174;2022-10-03T13:48:44;30.63;;;26.93;;
16304;SDS011;8261;47.678;-122.174;2022-10-03T13:51:32;36.53;;;28.73;;
16304;SDS011;8261;47.678;-122.174;2022-10-03T13:54:13;32.27;;;27.77;;
16304;SDS011;8261;47.678;-122.174;2022-10-03T13:56:51;34.33;;;27.67;;
16304;SDS011;8261;47.678;-122.174;2022-10-03T13:59:30;34.87;;;28.67;;
16304;SDS011;8261;47.678;-122.174;2022-10-03T14:02:14;32.83;;;28.13;;
16304;SDS011;8261;47.678;-122.174;2022-10-03T14:08:25;31.73;;;27.87;;
16304;SDS011;8261;47.678;-122.174;2022-10-03T14:14:20;36.77;;;29.07;;
16304;SDS011;8261;47.678;-122.174;2022-10-03T14:17:04;32.43;;;27.97;;
16304;SDS011;8261;47.678;-122.174;2022-10-03T14:19:44;33.33;;;28.30;;
16304;SDS011;8261;47.678;-122.174;2022-10-03T14:22:31;31.20;;;27.90;;
16304;SDS011;8261;47.678;-122.174;2022-10-03T14:25:19;31.23;;;27.87;;
16304;SDS011;8261;47.678;-122.174;2022-10-03T14:27:53;31.43;;;28.13;;
16304;SDS011;8261;47.678;-122.174;2022-10-03T14:30:28;31.67;;;28.27;;
16304;SDS011;8261;47.678;-122.174;2022-10-03T14:33:21;33.07;;;27.47;;
16304;SDS011;8261;47.678;-122.174;2022-10-03T14:36:02;30.00;;;26.87;;
16304;SDS011;8261;47.678;-122.174;2022-10-03T14:38:50;31.70;;;26.57;;
16304;SDS011;8261;47.678;-122.174;2022-10-03T14:41:43;29.77;;;26.20;;
16304;SDS011;8261;47.678;-122.174;2022-10-03T14:44:18;33.73;;;26.83;;
16304;SDS011;8261;47.678;-122.174;2022-10-03T14:46:54;30.17;;;26.57;;
16304;SDS011;8261;47.678;-122.174;2022-10-03T14:49:28;29.70;;;26.50;;
16304;SDS011;8261;47.678;-122.174;2022-10-03T14:52:24;30.33;;;27.13;;
16304;SDS011;8261;47.678;-122.174;2022-10-03T14:55:06;32.70;;;26.47;;
16304;SDS011;8261;47.678;-122.174;2022-10-03T14:57:43;32.17;;;26.07;;
16304;SDS011;8261;47.678;-122.174;2022-10-03T15:00:36;28.77;;;25.67;;
16304;SDS011;8261;47.678;-122.174;2022-10-03T15:03:18;34.60;;;26.13;;
16304;SDS011;8261;47.678;-122.174;2022-10-03T15:05:56;32.00;;;26.30;;
16304;SDS011;8261;47.678;-122.174;2022-10-03T15:08:31;28.20;;;24.63;;
16304;SDS011;8261;47.678;-122.174;2022-10-03T15:11:07;28.70;;;25.53;;
16304;SDS011;8261;47.678;-122.174;2022-10-03T15:13:45;28.30;;;24.80;;
16304;SDS011;8261;47.678;-122.174;2022-10-03T15:16:20;28.50;;;25.17;;
16304;SDS011;8261;47.678;-122.174;2022-10-03T15:18:52;28.63;;;25.20;;
16304;SDS011;8261;47.678;-122.174;2022-10-03T15:21:32;31.77;;;25.67;;
16304;SDS011;8261;47.678;-122.174;2022-10-03T15:24:08;31.53;;;25.93;;
16304;SDS011;8261;47.678;-122.174;2022-10-03T15:26:53;28.27;;;25.37;;
16304;SDS011;8261;47.678;-122.174;2022-10-03T15:29:30;27.57;;;24.53;;
16304;SDS011;8261;47.678;-122.174;2022-10-03T15:32:03;31.10;;;26.27;;
16304;SDS011;8261;47.678;-122.174;2022-10-03T15:34:47;30.67;;;25.70;;
16304;SDS011;8261;47.678;-122.174;2022-10-03T15:37:23;28.93;;;24.87;;
16304;SDS011;8261;47.678;-122.174;2022-10-03T15:40:04;30.73;;;26.00;;
16304;SDS011;8261;47.678;-122.174;2022-10-03T15:42:47;28.37;;;25.40;;
16304;SDS011;8261;47.678;-122.174;2022-10-03T15:45:25;28.63;;;25.50;;
16304;SDS011;8261;47.678;-122.174;2022-10-03T15:48:03;29.87;;;26.77;;
16304;SDS011;8261;47.678;-122.174;2022-10-03T15:50:40;32.43;;;27.30;;
16304;SDS011;8261;47.678;-122.174;2022-10-03T15:53:14;30.63;;;27.33;;
16304;SDS011;8261;47.678;-122.174;2022-10-03T15:56:06;32.17;;;28.27;;
16304;SDS011;8261;47.678;-122.174;2022-10-03T15:58:42;32.20;;;28.80;;
16304;SDS011;8261;47.678;-122.174;2022-10-03T16:01:20;32.10;;;28.60;;
16304;SDS011;8261;47.678;-122.174;2022-10-03T16:03:54;32.80;;;29.20;;
16304;SDS011;8261;47.678;-122.174;2022-10-03T16:06:29;35.07;;;29.83;;
16304;SDS011;8261;47.678;-122.174;2022-10-03T16:09:15;33.83;;;29.70;;
16304;SDS011;8261;47.678;-122.174;2022-10-03T16:11:58;35.17;;;30.73;;
16304;SDS011;8261;47.678;-122.174;2022-10-03T16:14:43;34.47;;;29.80;;
16304;SDS011;8261;47.678;-122.174;2022-10-03T16:17:20;40.37;;;34.07;;
16304;SDS011;8261;47.678;-122.174;2022-10-03T16:20:03;39.87;;;32.93;;
16304;SDS011;8261;47.678;-122.174;2022-10-03T16:22:43;33.30;;;29.70;;
16304;SDS011;8261;47.678;-122.174;2022-10-03T16:25:17;36.43;;;30.37;;
16304;SDS011;8261;47.678;-122.174;2022-10-03T16:27:52;34.80;;;30.40;;
16304;SDS011;8261;47.678;-122.174;2022-10-03T16:30:29;34.30;;;30.40;;
16304;SDS011;8261;47.678;-122.174;2022-10-03T16:33:10;34.30;;;30.50;;
16304;SDS011;8261;47.678;-122.174;2022-10-03T16:35:46;34.20;;;29.43;;
16304;SDS011;8261;47.678;-122.174;2022-10-03T16:38:20;32.27;;;28.90;;
16304;SDS011;8261;47.678;-122.174;2022-10-03T16:40:54;36.93;;;28.23;;
16304;SDS011;8261;47.678;-122.174;2022-10-03T16:43:27;32.57;;;29.00;;
16304;SDS011;8261;47.678;-122.174;2022-10-03T16:46:03;32.57;;;29.17;;
16304;SDS011;8261;47.678;-122.174;2022-10-03T16:48:43;32.67;;;29.17;;
16304;SDS011;8261;47.678;-122.174;2022-10-03T16:51:39;32.50;;;28.47;;
16304;SDS011;8261;47.678;-122.174;2022-10-03T16:54:13;33.37;;;28.90;;
16304;SDS011;8261;47.678;-122.174;2022-10-03T16:56:48;32.90;;;28.70;;
16304;SDS011;8261;47.678;-122.174;2022-10-03T16:59:29;30.33;;;26.93;;
16304;SDS011;8261;47.678;-122.174;2022-10-03T17:02:02;33.70;;;26.90;;
16304;SDS011;8261;47.678;-122.174;2022-10-03T17:04:38;31.93;;;27.10;;
16304;SDS011;8261;47.678;-122.174;2022-10-03T17:07:12;32.93;;;26.57;;
16304;SDS011;8261;47.678;-122.174;2022-10-03T17:09:50;30.70;;;26.10;;
16304;SDS011;8261;47.678;-122.174;2022-10-03T17:12:27;27.57;;;23.13;;
16304;SDS011;8261;47.678;-122.174;2022-10-03T17:15:02;26.43;;;23.63;;
16304;SDS011;8261;47.678;-122.174;2022-10-03T17:17:39;25.80;;;22.90;;
16304;SDS011;8261;47.678;-122.174;2022-10-03T17:20:28;26.07;;;23.37;;
16304;SDS011;8261;47.678;-122.174;2022-10-03T17:23:09;27.10;;;24.20;;
16304;SDS011;8261;47.678;-122.174;2022-10-03T17:25:47;26.77;;;23.53;;
16304;SDS011;8261;47.678;-122.174;2022-10-03T17:28:29;25.77;;;23.07;;
16304;SDS011;8261;47.678;-122.174;2022-10-03T17:31:13;29.23;;;24.60;;
16304;SDS011;8261;47.678;-122.174;2022-10-03T17:34:03;24.37;;;21.23;;
16304;SDS011;8261;47.678;-122.174;2022-10-03T17:37:01;25.23;;;22.53;;
16304;SDS011;8261;47.678;-122.174;2022-10-03T17:39:48;23.23;;;20.93;;
16304;SDS011;8261;47.678;-122.174;2022-10-03T17:42:36;23.67;;;21.07;;
16304;SDS011;8261;47.678;-122.174;2022-10-03T17:45:15;23.73;;;21.20;;
16304;SDS011;8261;47.678;-122.174;2022-10-03T17:48:02;22.80;;;19.20;;
16304;SDS011;8261;47.678;-122.174;2022-10-03T17:50:42;22.00;;;19.70;;
16304;SDS011;8261;47.678;-122.174;2022-10-03T17:53:26;23.73;;;20.47;;
16304;SDS011;8261;47.678;-122.174;2022-10-03T17:55:59;21.37;;;18.60;;
16304;SDS011;8261;47.678;-122.174;2022-10-03T17:58:36;25.80;;;20.03;;
16304;SDS011;8261;47.678;-122.174;2022-10-03T18:01:11;23.53;;;19.77;;
16304;SDS011;8261;47.678;-122.174;2022-10-03T18:03:45;22.27;;;18.67;;
16304;SDS011;8261;47.678;-122.174;2022-10-03T18:06:32;23.33;;;18.63;;
16304;SDS011;8261;47.678;-122.174;2022-10-03T18:09:18;21.23;;;18.73;;
16304;SDS011;8261;47.678;-122.174;2022-10-03T18:11:54;22.20;;;19.23;;
16304;SDS011;8261;47.678;-122.174;2022-10-03T18:14:49;22.00;;;19.50;;
16304;SDS011;8261;47.678;-122.174;2022-10-03T18:17:41;22.27;;;19.87;;
16304;SDS011;8261;47.678;-122.174;2022-10-03T18:20:22;24.53;;;19.20;;
16304;SDS011;8261;47.678;-122.174;2022-10-03T18:23:10;23.10;;;19.97;;
16304;SDS011;8261;47.678;-122.174;2022-10-03T18:26:11;21.77;;;19.43;;
16304;SDS011;8261;47.678;-122.174;2022-10-03T18:28:49;24.73;;;19.60;;
16304;SDS011;8261;47.678;-122.174;2022-10-03T18:31:28;24.63;;;19.67;;
16304;SDS011;8261;47.678;-122.174;2022-10-03T18:34:02;23.93;;;20.43;;
16304;SDS011;8261;47.678;-122.174;2022-10-03T18:36:41;26.47;;;22.17;;
16304;SDS011;8261;47.678;-122.174;2022-10-03T18:39:16;29.00;;;22.97;;
16304;SDS011;8261;47.678;-122.174;2022-10-03T18:41:51;26.10;;;23.40;;
16304;SDS011;8261;47.678;-122.174;2022-10-03T18:44:25;29.83;;;24.33;;
16304;SDS011;8261;47.678;-122.174;2022-10-03T18:47:03;25.20;;;22.50;;
16304;SDS011;8261;47.678;-122.174;2022-10-03T18:49:48;27.03;;;23.73;;
16304;SDS011;8261;47.678;-122.174;2022-10-03T18:52:27;29.80;;;24.80;;
16304;SDS011;8261;47.678;-122.174;2022-10-03T18:55:06;26.97;;;24.23;;
16304;SDS011;8261;47.678;-122.174;2022-10-03T18:57:53;28.87;;;23.90;;
16304;SDS011;8261;47.678;-122.174;2022-10-03T19:00:30;27.83;;;24.53;;
16304;SDS011;8261;47.678;-122.174;2022-10-03T19:03:10;27.27;;;24.37;;
16304;SDS011;8261;47.678;-122.174;2022-10-03T19:05:46;27.00;;;24.07;;
16304;SDS011;8261;47.678;-122.174;2022-10-03T19:08:21;27.53;;;23.73;;
16304;SDS011;8261;47.678;-122.174;2022-10-03T19:10:57;26.30;;;23.03;;
16304;SDS011;8261;47.678;-122.174;2022-10-03T19:13:36;25.77;;;23.00;;
16304;SDS011;8261;47.678;-122.174;2022-10-03T19:19:27;23.93;;;21.33;;
16304;SDS011;8261;47.678;-122.174;2022-10-03T19:22:09;27.50;;;22.93;;
16304;SDS011;8261;47.678;-122.174;2022-10-03T19:24:45;25.27;;;22.43;;
16304;SDS011;8261;47.678;-122.174;2022-10-03T19:27:39;26.53;;;23.67;;
16304;SDS011;8261;47.678;-122.174;2022-10-03T19:30:19;26.00;;;21.80;;
16304;SDS011;8261;47.678;-122.174;2022-10-03T19:32:52;27.83;;;23.63;;
16304;SDS011;8261;47.678;-122.174;2022-10-03T19:35:32;25.33;;;22.73;;
16304;SDS011;8261;47.678;-122.174;2022-10-03T19:38:13;25.40;;;22.80;;
16304;SDS011;8261;47.678;-122.174;2022-10-03T19:40:51;25.10;;;22.17;;
16304;SDS011;8261;47.678;-122.174;2022-10-03T19:43:30;26.63;;;22.07;;